Time;durP1;ratioP1;P1;durP2;ratioP2;P2;SDS_P1;SDS_P2;PMS_P1;PMS_P2;Temp;Humidity;BMP_temperature;BMP_pressure;BME280_temperature;BME280_humidity;BME280_pressure;Samples;Min_cycle;Max_cycle;Signal;HPM_P1;HPM_P2
2021/06/12 00:01:14;;;;;;;22.93;21.00;;;;;;;;;;5070845;28;20448;-82
2021/06/12 00:03:40;;;;;;;25.17;23.17;;;;;;;;;;5077226;28;20472;-82
2021/06/12 00:06:09;;;;;;;24.13;22.13;;;;;;;;;;5074857;28;20440;-82
2021/06/12 00:08:35;;;;;;;23.77;21.87;;;;;;;;;;5069692;28;20468;-82
2021/06/12 00:11:02;;;;;;;24.90;22.80;;;;;;;;;;5068489;28;20469;-82
2021/06/12 00:13:29;;;;;;;23.73;21.87;;;;;;;;;;5068626;28;20451;-82
2021/06/12 00:15:56;;;;;;;23.70;21.90;;;;;;;;;;5069185;28;20441;-81
2021/06/12 00:18:22;;;;;;;22.90;21.20;;;;;;;;;;5067356;28;20430;-82
2021/06/12 00:20:51;;;;;;;25.00;23.10;;;;;;;;;;5067002;28;20527;-82
2021/06/12 00:23:19;;;;;;;25.20;23.20;;;;;;;;;;5064519;28;20531;-82
2021/06/12 00:25:46;;;;;;;25.37;23.47;;;;;;;;;;5070641;28;20436;-81
2021/06/12 00:28:12;;;;;;;24.03;22.33;;;;;;;;;;5077775;28;20453;-81
2021/06/12 00:30:39;;;;;;;24.43;22.53;;;;;;;;;;5072972;28;20453;-81
2021/06/12 00:33:06;;;;;;;25.27;23.47;;;;;;;;;;5073988;28;20516;-81
2021/06/12 00:35:33;;;;;;;22.93;21.20;;;;;;;;;;5055291;28;20435;-80
2021/06/12 00:38:00;;;;;;;24.10;22.20;;;;;;;;;;5075555;28;20449;-81
2021/06/12 00:40:28;;;;;;;23.93;22.13;;;;;;;;;;5075540;28;20498;-80
2021/06/12 00:42:55;;;;;;;23.97;22.17;;;;;;;;;;5071090;28;20805;-81
2021/06/12 00:45:22;;;;;;;25.77;23.60;;;;;;;;;;5071296;28;20483;-81
2021/06/12 00:47:51;;;;;;;24.33;21.90;;;;;;;;;;5070278;28;20467;-81
2021/06/12 00:50:19;;;;;;;25.13;23.13;;;;;;;;;;5068602;28;20511;-81
2021/06/12 00:52:46;;;;;;;24.33;22.53;;;;;;;;;;5068553;28;20441;-81
2021/06/12 00:55:14;;;;;;;24.07;22.03;;;;;;;;;;5068239;28;20511;-81
2021/06/12 00:57:45;;;;;;;25.47;23.57;;;;;;;;;;5068518;28;20447;-81
2021/06/12 01:00:13;;;;;;;25.23;23.23;;;;;;;;;;5068214;28;20444;-82
2021/06/12 01:02:40;;;;;;;25.53;23.60;;;;;;;;;;5051134;28;20458;-81
2021/06/12 01:05:08;;;;;;;25.27;23.27;;;;;;;;;;5068427;28;20452;-81
2021/06/12 01:07:35;;;;;;;25.30;23.20;;;;;;;;;;5068792;28;20456;-82
2021/06/12 01:10:01;;;;;;;24.93;22.90;;;;;;;;;;5069698;28;20479;-82
2021/06/12 01:12:32;;;;;;;25.50;23.40;;;;;;;;;;5071271;28;20478;-81
2021/06/12 01:15:04;;;;;;;25.13;23.13;;;;;;;;;;5069569;28;20460;-81
2021/06/12 01:17:34;;;;;;;26.43;24.33;;;;;;;;;;5068537;28;20448;-81
2021/06/12 01:20:16;;;;;;;25.97;23.93;;;;;;;;;;5069537;28;20457;-81
2021/06/12 01:22:51;;;;;;;25.73;23.73;;;;;;;;;;5070371;28;20454;-81
2021/06/12 01:25:22;;;;;;;25.80;23.73;;;;;;;;;;5069114;28;20443;-81
2021/06/12 01:28:18;;;;;;;23.70;21.87;;;;;;;;;;5068424;28;20494;-82
2021/06/12 01:30:49;;;;;;;24.93;22.90;;;;;;;;;;4987824;28;20453;-81
2021/06/12 01:33:16;;;;;;;25.33;23.30;;;;;;;;;;5052640;28;20451;-82
2021/06/12 01:35:44;;;;;;;24.70;22.80;;;;;;;;;;5069026;28;20481;-81
2021/06/12 01:38:12;;;;;;;25.17;23.17;;;;;;;;;;5068940;28;20437;-81
2021/06/12 01:40:41;;;;;;;24.80;22.80;;;;;;;;;;5051361;28;20491;-81
2021/06/12 01:43:09;;;;;;;25.27;23.10;;;;;;;;;;5070419;28;20434;-82
2021/06/12 01:45:36;;;;;;;24.20;22.40;;;;;;;;;;5068209;28;20506;-82
2021/06/12 01:48:04;;;;;;;25.20;23.30;;;;;;;;;;5069126;28;20992;-81
2021/06/12 01:50:32;;;;;;;24.03;22.13;;;;;;;;;;5068658;28;20515;-82
2021/06/12 01:52:59;;;;;;;23.90;21.93;;;;;;;;;;5068718;28;20963;-82
2021/06/12 01:55:27;;;;;;;23.93;22.13;;;;;;;;;;5067101;28;20446;-82
2021/06/12 01:57:54;;;;;;;24.07;22.20;;;;;;;;;;5066427;28;20436;-82
2021/06/12 02:00:22;;;;;;;23.00;21.13;;;;;;;;;;5066763;28;20493;-82
2021/06/12 02:02:48;;;;;;;24.80;22.80;;;;;;;;;;5066493;28;20946;-82
2021/06/12 02:05:19;;;;;;;22.23;20.53;;;;;;;;;;5067078;28;20754;-82
2021/06/12 02:07:47;;;;;;;24.03;22.23;;;;;;;;;;5064963;28;20503;-82
2021/06/12 02:10:14;;;;;;;24.73;22.80;;;;;;;;;;5065044;28;20462;-82
2021/06/12 02:12:41;;;;;;;23.07;21.47;;;;;;;;;;5064873;28;20580;-82
2021/06/12 02:15:09;;;;;;;23.67;21.70;;;;;;;;;;5064578;28;20498;-82
2021/06/12 02:17:37;;;;;;;23.50;21.70;;;;;;;;;;5065249;28;20805;-82
2021/06/12 02:20:06;;;;;;;23.70;21.80;;;;;;;;;;5065427;28;20445;-82
2021/06/12 02:22:34;;;;;;;24.50;22.60;;;;;;;;;;5064872;28;20485;-83
2021/06/12 02:25:00;;;;;;;24.60;22.77;;;;;;;;;;5065819;28;20507;-82
2021/06/12 02:27:27;;;;;;;25.27;23.37;;;;;;;;;;5066224;28;20475;-82
2021/06/12 02:29:55;;;;;;;25.27;22.97;;;;;;;;;;5065818;28;20449;-83
2021/06/12 02:32:23;;;;;;;25.73;23.73;;;;;;;;;;5068136;28;20457;-82
2021/06/12 02:34:49;;;;;;;24.97;23.07;;;;;;;;;;5066538;28;20530;-82
2021/06/12 02:37:17;;;;;;;26.70;24.60;;;;;;;;;;5066823;28;20446;-83
2021/06/12 02:39:44;;;;;;;24.57;22.50;;;;;;;;;;5064861;28;20538;-83
2021/06/12 02:42:11;;;;;;;25.00;23.00;;;;;;;;;;5065447;28;20439;-82
2021/06/12 02:44:38;;;;;;;24.77;22.87;;;;;;;;;;5065631;28;20576;-82
2021/06/12 02:47:07;;;;;;;26.10;24.07;;;;;;;;;;5065354;28;20481;-82
2021/06/12 02:49:35;;;;;;;26.03;23.97;;;;;;;;;;5065601;28;20453;-82
2021/06/12 02:52:03;;;;;;;24.70;22.60;;;;;;;;;;5064372;28;20458;-82
2021/06/12 02:54:31;;;;;;;25.40;23.20;;;;;;;;;;5065390;28;20515;-82
2021/06/12 02:57:00;;;;;;;23.97;22.07;;;;;;;;;;5064993;28;20520;-82
2021/06/12 02:59:30;;;;;;;25.20;23.27;;;;;;;;;;5064686;28;20558;-82
2021/06/12 03:01:58;;;;;;;24.70;22.80;;;;;;;;;;5065964;28;20435;-82
2021/06/12 03:04:25;;;;;;;23.80;21.90;;;;;;;;;;5066188;28;20865;-82
2021/06/12 03:06:52;;;;;;;24.57;22.57;;;;;;;;;;5065177;28;20478;-82
2021/06/12 03:09:20;;;;;;;22.77;20.87;;;;;;;;;;5066187;28;20494;-82
2021/06/12 03:11:48;;;;;;;23.83;22.03;;;;;;;;;;5070279;28;20448;-82
2021/06/12 03:14:16;;;;;;;24.20;22.30;;;;;;;;;;5076589;28;20511;-82
2021/06/12 03:16:43;;;;;;;24.40;22.50;;;;;;;;;;5078522;28;20485;-82
2021/06/12 03:19:11;;;;;;;25.20;23.10;;;;;;;;;;5080513;28;20459;-82
2021/06/12 03:21:38;;;;;;;24.37;22.37;;;;;;;;;;5076861;28;20476;-82
2021/06/12 03:24:05;;;;;;;23.97;21.93;;;;;;;;;;5078128;28;20446;-80
2021/06/12 03:26:32;;;;;;;24.60;22.53;;;;;;;;;;5078791;28;20444;-82
2021/06/12 03:28:59;;;;;;;24.07;22.27;;;;;;;;;;5078264;28;20466;-82
2021/06/12 03:31:29;;;;;;;25.60;23.43;;;;;;;;;;5078292;28;20429;-81
2021/06/12 03:33:55;;;;;;;24.07;22.23;;;;;;;;;;5079708;28;20447;-82
2021/06/12 03:36:24;;;;;;;24.27;22.37;;;;;;;;;;5079030;28;20461;-82
2021/06/12 03:38:50;;;;;;;24.43;22.63;;;;;;;;;;5059832;28;20458;-82
2021/06/12 03:41:19;;;;;;;25.20;23.20;;;;;;;;;;5070733;28;20533;-82
2021/06/12 03:43:46;;;;;;;23.23;21.50;;;;;;;;;;5064821;28;20452;-81
2021/06/12 03:46:14;;;;;;;23.77;21.87;;;;;;;;;;5067026;28;20460;-81
2021/06/12 03:48:44;;;;;;;24.00;21.97;;;;;;;;;;5050762;28;20474;-82
2021/06/12 03:51:13;;;;;;;24.30;22.40;;;;;;;;;;5069316;28;20519;-81
2021/06/12 03:53:45;;;;;;;22.77;20.90;;;;;;;;;;5070272;28;20431;-82
2021/06/12 03:56:13;;;;;;;23.13;21.30;;;;;;;;;;5070997;28;20464;-82
2021/06/12 03:58:41;;;;;;;21.93;20.00;;;;;;;;;;5070161;28;20441;-80
2021/06/12 04:01:09;;;;;;;23.20;21.40;;;;;;;;;;5052741;28;20494;-81
2021/06/12 04:03:35;;;;;;;23.70;21.90;;;;;;;;;;5071822;28;20441;-81
2021/06/12 04:06:07;;;;;;;22.17;20.33;;;;;;;;;;5069033;28;20458;-81
2021/06/12 04:08:34;;;;;;;23.10;21.03;;;;;;;;;;5069157;28;20458;-81
2021/06/12 04:11:00;;;;;;;20.73;19.13;;;;;;;;;;5069463;28;20478;-81
2021/06/12 04:13:27;;;;;;;22.37;20.73;;;;;;;;;;5067490;28;20476;-81
2021/06/12 04:15:56;;;;;;;20.97;19.33;;;;;;;;;;5067641;28;20429;-82
2021/06/12 04:18:22;;;;;;;21.73;20.00;;;;;;;;;;5067974;28;20477;-82
2021/06/12 04:20:49;;;;;;;19.90;18.30;;;;;;;;;;5068265;28;20517;-82
2021/06/12 04:23:18;;;;;;;20.53;18.93;;;;;;;;;;5067735;28;20516;-82
2021/06/12 04:25:44;;;;;;;18.80;17.47;;;;;;;;;;5069113;28;20480;-81
2021/06/12 04:28:11;;;;;;;19.27;17.80;;;;;;;;;;5068762;28;20461;-82
2021/06/12 04:30:39;;;;;;;19.20;17.47;;;;;;;;;;5069096;28;20454;-81
2021/06/12 04:33:06;;;;;;;18.47;17.13;;;;;;;;;;5051564;28;20452;-82
2021/06/12 04:35:33;;;;;;;17.50;16.23;;;;;;;;;;5069331;28;20446;-81
2021/06/12 04:38:00;;;;;;;19.20;17.67;;;;;;;;;;5070302;28;20445;-82
2021/06/12 04:40:28;;;;;;;18.43;17.03;;;;;;;;;;5068993;28;20458;-83
2021/06/12 04:42:55;;;;;;;18.13;16.73;;;;;;;;;;5068659;28;20453;-82
2021/06/12 04:45:22;;;;;;;17.00;15.80;;;;;;;;;;5068507;28;20464;-82
2021/06/12 04:47:49;;;;;;;16.70;15.50;;;;;;;;;;5068093;28;20471;-82
2021/06/12 04:50:16;;;;;;;17.67;16.37;;;;;;;;;;5070728;28;20583;-81
2021/06/12 04:52:42;;;;;;;17.43;16.03;;;;;;;;;;5068938;28;20455;-81
2021/06/12 04:55:10;;;;;;;17.57;16.07;;;;;;;;;;5068458;28;20503;-82
2021/06/12 04:57:39;;;;;;;17.00;15.83;;;;;;;;;;5068966;28;20630;-81
2021/06/12 05:00:07;;;;;;;15.90;14.80;;;;;;;;;;5068335;28;20450;-81
2021/06/12 05:02:33;;;;;;;16.80;15.60;;;;;;;;;;5068294;28;20963;-82
2021/06/12 05:05:00;;;;;;;17.93;16.60;;;;;;;;;;5067543;28;20558;-82
2021/06/12 05:07:27;;;;;;;16.67;15.57;;;;;;;;;;5067646;28;20452;-82
2021/06/12 05:09:53;;;;;;;17.47;16.17;;;;;;;;;;5068295;28;20515;-82
2021/06/12 05:12:20;;;;;;;16.90;15.60;;;;;;;;;;5067937;28;20465;-82
2021/06/12 05:14:50;;;;;;;18.17;16.97;;;;;;;;;;5050713;28;20455;-82
2021/06/12 05:17:19;;;;;;;16.60;15.50;;;;;;;;;;5069047;28;20460;-81
2021/06/12 05:19:45;;;;;;;18.00;16.60;;;;;;;;;;5052321;28;20499;-82
2021/06/12 05:22:12;;;;;;;18.30;16.93;;;;;;;;;;5069063;28;20926;-81
2021/06/12 05:24:39;;;;;;;17.13;15.90;;;;;;;;;;5068903;28;20433;-80
2021/06/12 05:27:06;;;;;;;17.67;16.47;;;;;;;;;;5068090;28;20531;-81
2021/06/12 05:29:33;;;;;;;19.50;17.77;;;;;;;;;;5067525;28;20992;-81
2021/06/12 05:32:01;;;;;;;17.50;16.23;;;;;;;;;;5067333;28;20474;-82
2021/06/12 05:34:28;;;;;;;18.53;17.23;;;;;;;;;;5067163;28;20469;-81
2021/06/12 05:36:54;;;;;;;19.40;17.90;;;;;;;;;;5067565;28;20551;-82
2021/06/12 05:39:21;;;;;;;17.23;16.03;;;;;;;;;;5067250;28;20497;-82
2021/06/12 05:41:48;;;;;;;18.00;16.70;;;;;;;;;;5066669;28;20448;-82
2021/06/12 05:44:14;;;;;;;17.53;16.33;;;;;;;;;;5067248;28;20510;-82
2021/06/12 05:46:42;;;;;;;18.73;17.37;;;;;;;;;;5062608;28;20474;-84
2021/06/12 05:49:10;;;;;;;19.60;17.60;;;;;;;;;;5059174;28;20510;-84
2021/06/12 05:51:37;;;;;;;16.90;15.70;;;;;;;;;;5060167;28;20452;-82
2021/06/12 05:54:04;;;;;;;18.93;17.50;;;;;;;;;;5061353;28;20518;-84
2021/06/12 05:56:30;;;;;;;19.60;18.10;;;;;;;;;;5064705;28;20485;-82
2021/06/12 05:58:57;;;;;;;17.93;16.63;;;;;;;;;;5063183;28;20475;-83
2021/06/12 06:01:24;;;;;;;18.53;17.07;;;;;;;;;;5062117;28;20534;-83
2021/06/12 06:03:50;;;;;;;19.00;17.40;;;;;;;;;;5058749;28;20475;-84
2021/06/12 06:06:18;;;;;;;17.87;16.23;;;;;;;;;;5059136;28;20537;-82
2021/06/12 06:08:45;;;;;;;19.33;17.23;;;;;;;;;;5059117;28;20533;-83
2021/06/12 06:11:12;;;;;;;17.63;16.33;;;;;;;;;;5059040;28;20473;-84
2021/06/12 06:13:39;;;;;;;17.73;16.40;;;;;;;;;;5058726;28;20459;-84
2021/06/12 06:16:06;;;;;;;16.30;15.20;;;;;;;;;;5040781;28;20497;-83
2021/06/12 06:18:33;;;;;;;17.63;15.97;;;;;;;;;;5058017;28;20441;-84
2021/06/12 06:21:00;;;;;;;15.57;14.47;;;;;;;;;;5058247;28;20485;-83
2021/06/12 06:23:28;;;;;;;15.47;14.30;;;;;;;;;;5058595;28;20445;-83
2021/06/12 06:25:55;;;;;;;15.43;14.10;;;;;;;;;;5059624;28;20519;-84
2021/06/12 06:28:21;;;;;;;14.70;13.70;;;;;;;;;;5058969;28;20461;-84
2021/06/12 06:30:48;;;;;;;14.20;13.13;;;;;;;;;;5059095;28;20486;-84
2021/06/12 06:33:15;;;;;;;15.40;14.30;;;;;;;;;;5062183;28;20475;-83
2021/06/12 06:35:41;;;;;;;14.50;13.50;;;;;;;;;;5061994;28;20539;-83
2021/06/12 06:38:08;;;;;;;14.80;13.47;;;;;;;;;;5061951;28;20531;-83
2021/06/12 06:40:36;;;;;;;15.07;13.90;;;;;;;;;;5061708;28;20577;-83
2021/06/12 06:43:03;;;;;;;14.13;13.13;;;;;;;;;;5060821;28;20467;-83
2021/06/12 06:45:30;;;;;;;15.00;14.00;;;;;;;;;;5062163;28;20436;-82
2021/06/12 06:47:56;;;;;;;14.60;13.60;;;;;;;;;;5072703;28;20486;-82
2021/06/12 06:50:23;;;;;;;15.77;14.37;;;;;;;;;;5076394;28;20439;-83
2021/06/12 06:52:50;;;;;;;15.80;14.70;;;;;;;;;;5069359;28;20497;-82
2021/06/12 06:55:17;;;;;;;16.67;15.27;;;;;;;;;;5066181;28;20444;-83
2021/06/12 06:57:45;;;;;;;15.50;14.30;;;;;;;;;;5067464;28;20493;-82
2021/06/12 07:00:12;;;;;;;15.00;13.80;;;;;;;;;;5075977;28;20425;-82
2021/06/12 07:02:39;;;;;;;15.53;14.23;;;;;;;;;;5077756;28;20435;-82
2021/06/12 07:05:06;;;;;;;14.90;13.60;;;;;;;;;;5079969;28;20440;-82
2021/06/12 07:07:33;;;;;;;14.60;13.50;;;;;;;;;;5078514;28;20436;-82
2021/06/12 07:09:59;;;;;;;14.70;13.60;;;;;;;;;;5079143;28;20470;-81
2021/06/12 07:12:26;;;;;;;13.20;12.10;;;;;;;;;;5078025;28;20512;-81
2021/06/12 07:14:54;;;;;;;15.33;14.13;;;;;;;;;;5069809;28;20449;-81
2021/06/12 07:17:21;;;;;;;14.17;13.17;;;;;;;;;;5069868;28;20476;-82
2021/06/12 07:19:48;;;;;;;14.10;12.90;;;;;;;;;;5070059;28;20445;-80
2021/06/12 07:22:15;;;;;;;15.10;13.87;;;;;;;;;;5075499;28;20486;-81
2021/06/12 07:24:41;;;;;;;15.00;13.87;;;;;;;;;;5090915;28;20509;-81
2021/06/12 07:27:09;;;;;;;14.80;13.70;;;;;;;;;;5090814;28;20451;-81
2021/06/12 07:29:36;;;;;;;15.80;14.50;;;;;;;;;;5091110;28;20955;-81
2021/06/12 07:32:04;;;;;;;15.60;14.30;;;;;;;;;;5072322;28;20450;-83
2021/06/12 07:34:31;;;;;;;16.20;14.90;;;;;;;;;;5089982;28;20534;-80
2021/06/12 07:36:57;;;;;;;14.70;13.40;;;;;;;;;;5073336;28;20476;-82
2021/06/12 07:39:26;;;;;;;14.13;13.13;;;;;;;;;;5087385;28;20500;-82
2021/06/12 07:41:54;;;;;;;13.47;12.57;;;;;;;;;;5069233;28;20548;-82
2021/06/12 07:44:21;;;;;;;14.20;13.00;;;;;;;;;;5066295;28;20491;-81
2021/06/12 07:46:49;;;;;;;14.70;13.23;;;;;;;;;;5064537;28;20562;-81
2021/06/12 07:49:17;;;;;;;14.23;13.13;;;;;;;;;;5064786;28;20492;-82
2021/06/12 07:51:44;;;;;;;13.47;12.53;;;;;;;;;;5064485;28;20484;-82
2021/06/12 07:54:11;;;;;;;13.83;12.60;;;;;;;;;;5082243;28;20441;-82
2021/06/12 07:56:37;;;;;;;13.10;12.10;;;;;;;;;;5063576;28;20472;-81
2021/06/12 07:59:04;;;;;;;13.30;12.30;;;;;;;;;;5045592;28;20525;-82
2021/06/12 08:01:31;;;;;;;15.00;13.80;;;;;;;;;;5085348;28;20447;-82
2021/06/12 08:03:58;;;;;;;14.30;13.20;;;;;;;;;;5079221;28;20487;-82
2021/06/12 08:06:26;;;;;;;13.63;12.60;;;;;;;;;;5065852;28;20440;-81
2021/06/12 08:08:52;;;;;;;12.77;11.80;;;;;;;;;;5077414;28;20464;-82
2021/06/12 08:11:19;;;;;;;12.60;11.60;;;;;;;;;;5067564;28;20796;-81
2021/06/12 08:13:46;;;;;;;14.57;13.53;;;;;;;;;;5068087;28;20442;-81
2021/06/12 08:16:13;;;;;;;12.60;11.80;;;;;;;;;;5065608;28;20805;-81
2021/06/12 08:18:40;;;;;;;14.33;13.13;;;;;;;;;;5047899;28;20522;-81
2021/06/12 08:21:06;;;;;;;12.47;11.67;;;;;;;;;;5067043;28;20447;-82
2021/06/12 08:23:36;;;;;;;12.17;11.13;;;;;;;;;;5066146;28;20456;-82
2021/06/12 08:26:02;;;;;;;11.43;10.63;;;;;;;;;;5066610;28;20448;-82
2021/06/12 08:28:30;;;;;;;11.60;10.73;;;;;;;;;;5066852;28;20494;-82
2021/06/12 08:30:58;;;;;;;11.70;10.80;;;;;;;;;;5066261;28;20501;-82
2021/06/12 08:33:25;;;;;;;10.70;9.80;;;;;;;;;;5065882;28;20448;-81
2021/06/12 08:35:51;;;;;;;10.97;9.93;;;;;;;;;;5067244;28;20452;-81
2021/06/12 08:38:19;;;;;;;10.77;9.70;;;;;;;;;;5064965;28;20484;-82
2021/06/12 08:40:48;;;;;;;11.30;10.50;;;;;;;;;;5068145;28;20433;-81
2021/06/12 08:43:19;;;;;;;11.03;9.83;;;;;;;;;;5068938;28;20486;-81
2021/06/12 08:45:46;;;;;;;11.37;10.47;;;;;;;;;;5068825;28;20934;-81
2021/06/12 08:48:13;;;;;;;10.20;9.50;;;;;;;;;;5050168;28;20473;-81
2021/06/12 08:50:40;;;;;;;9.67;9.07;;;;;;;;;;5071912;28;20520;-81
2021/06/12 08:53:07;;;;;;;9.73;8.93;;;;;;;;;;5055453;28;20452;-81
2021/06/12 08:55:34;;;;;;;9.30;8.40;;;;;;;;;;5072379;28;20449;-81
2021/06/12 08:58:02;;;;;;;10.57;9.40;;;;;;;;;;5067545;28;20441;-81
2021/06/12 09:00:29;;;;;;;8.00;7.40;;;;;;;;;;5066573;28;20473;-81
2021/06/12 09:03:06;;;;;;;8.03;7.53;;;;;;;;;;5066201;28;20443;-81
2021/06/12 09:05:38;;;;;;;7.93;7.30;;;;;;;;;;5066594;28;20434;-81
2021/06/12 09:08:06;;;;;;;8.23;7.50;;;;;;;;;;5067604;28;20439;-81
2021/06/12 09:10:33;;;;;;;9.17;6.87;;;;;;;;;;5066880;28;21074;-81
2021/06/12 09:13:02;;;;;;;7.37;6.87;;;;;;;;;;5066508;28;20505;-80
2021/06/12 09:15:28;;;;;;;6.67;6.07;;;;;;;;;;5066628;28;20452;-80
2021/06/12 09:17:55;;;;;;;6.30;5.90;;;;;;;;;;5065696;28;20481;-81
2021/06/12 09:20:37;;;;;;;7.60;7.00;;;;;;;;;;5067767;28;20440;-81
2021/06/12 09:23:10;;;;;;;7.13;6.63;;;;;;;;;;5068051;28;20451;-82
2021/06/12 09:25:38;;;;;;;6.47;5.97;;;;;;;;;;5068894;28;20535;-81
2021/06/12 09:28:06;;;;;;;4.93;4.63;;;;;;;;;;5071792;28;20442;-82
2021/06/12 09:30:33;;;;;;;5.00;4.60;;;;;;;;;;5072690;28;20499;-83
2021/06/12 09:33:02;;;;;;;5.27;4.87;;;;;;;;;;5072087;28;20464;-81
2021/06/12 09:35:33;;;;;;;6.37;5.40;;;;;;;;;;5067917;28;20533;-79
2021/06/12 09:38:00;;;;;;;4.90;4.50;;;;;;;;;;5059311;28;20456;-78
2021/06/12 09:40:31;;;;;;;6.00;5.60;;;;;;;;;;5060563;28;20462;-79
2021/06/12 09:42:59;;;;;;;4.87;4.47;;;;;;;;;;5063607;28;20436;-79
2021/06/12 09:45:28;;;;;;;4.53;4.23;;;;;;;;;;5060364;28;20447;-78
2021/06/12 09:48:07;;;;;;;7.33;5.73;;;;;;;;;;5059082;28;20598;-79
2021/06/12 09:50:34;;;;;;;5.90;5.37;;;;;;;;;;5057983;28;20430;-78
2021/06/12 09:53:10;;;;;;;5.27;4.97;;;;;;;;;;5060239;28;20451;-78
2021/06/12 09:55:37;;;;;;;7.90;5.80;;;;;;;;;;5062453;28;20833;-78
2021/06/12 09:58:04;;;;;;;6.40;5.90;;;;;;;;;;5059571;28;20948;-78
2021/06/12 10:00:34;;;;;;;6.50;6.00;;;;;;;;;;5060336;28;20441;-78
2021/06/12 10:03:01;;;;;;;5.90;5.40;;;;;;;;;;5060694;28;20445;-79
2021/06/12 10:05:27;;;;;;;5.83;5.27;;;;;;;;;;5058127;28;20448;-78
2021/06/12 10:07:55;;;;;;;5.20;4.80;;;;;;;;;;5057616;28;20434;-78
2021/06/12 10:10:22;;;;;;;6.33;5.20;;;;;;;;;;5056562;28;20441;-78
2021/06/12 10:12:49;;;;;;;5.70;5.30;;;;;;;;;;5063701;28;20480;-79
2021/06/12 10:15:17;;;;;;;5.80;5.40;;;;;;;;;;5069788;28;20446;-79
2021/06/12 10:17:46;;;;;;;7.13;5.77;;;;;;;;;;5063692;28;20438;-80
2021/06/12 10:20:15;;;;;;;5.70;5.20;;;;;;;;;;5060796;28;20469;-79
2021/06/12 10:22:43;;;;;;;5.87;5.47;;;;;;;;;;5063580;28;20505;-79
2021/06/12 10:25:10;;;;;;;5.90;5.40;;;;;;;;;;5060895;28;20445;-80
2021/06/12 10:27:37;;;;;;;5.53;5.13;;;;;;;;;;5066712;28;20481;-79
2021/06/12 10:30:05;;;;;;;5.40;5.00;;;;;;;;;;5071695;28;20985;-79
2021/06/12 10:32:32;;;;;;;5.50;5.00;;;;;;;;;;5072965;28;20448;-79
2021/06/12 10:35:03;;;;;;;5.40;5.00;;;;;;;;;;5075995;28;20437;-78
2021/06/12 10:37:30;;;;;;;5.27;4.87;;;;;;;;;;5079101;28;20430;-79
2021/06/12 10:40:02;;;;;;;5.30;4.90;;;;;;;;;;5079364;28;20464;-79
2021/06/12 10:42:29;;;;;;;5.20;4.90;;;;;;;;;;5080559;28;20449;-79
2021/06/12 10:44:56;;;;;;;5.17;4.87;;;;;;;;;;5080713;28;20495;-78
2021/06/12 10:47:38;;;;;;;10.60;5.77;;;;;;;;;;5077651;28;20444;-79
2021/06/12 10:50:20;;;;;;;5.80;5.40;;;;;;;;;;5076073;28;20479;-79
2021/06/12 10:52:48;;;;;;;5.73;5.37;;;;;;;;;;5065690;28;20499;-79
2021/06/12 10:55:40;;;;;;;5.60;5.20;;;;;;;;;;5065122;28;20451;-79
2021/06/12 10:58:35;;;;;;;4.70;4.40;;;;;;;;;;5064392;28;20449;-79
2021/06/12 11:01:13;;;;;;;5.20;4.83;;;;;;;;;;5064308;28;20437;-79
2021/06/12 11:03:52;;;;;;;4.80;4.50;;;;;;;;;;5065287;28;20791;-79
2021/06/12 11:06:37;;;;;;;5.43;5.03;;;;;;;;;;5063901;28;20429;-79
2021/06/12 11:09:22;;;;;;;7.00;5.33;;;;;;;;;;5063541;28;20457;-79
2021/06/12 11:11:50;;;;;;;5.20;4.90;;;;;;;;;;5061412;28;20475;-78
2021/06/12 11:14:31;;;;;;;5.30;4.90;;;;;;;;;;5059345;28;20500;-79
2021/06/12 11:17:17;;;;;;;5.60;5.10;;;;;;;;;;5060272;28;20437;-79
2021/06/12 11:19:44;;;;;;;5.17;4.77;;;;;;;;;;5060551;28;20449;-78
2021/06/12 11:22:27;;;;;;;4.47;4.07;;;;;;;;;;5062058;28;20499;-78
2021/06/12 11:24:57;;;;;;;4.87;4.57;;;;;;;;;;5066126;28;20460;-80
2021/06/12 11:27:30;;;;;;;4.80;4.40;;;;;;;;;;5065178;28;20499;-80
2021/06/12 11:30:14;;;;;;;5.60;4.20;;;;;;;;;;5065623;28;21021;-80
2021/06/12 11:32:42;;;;;;;4.50;4.20;;;;;;;;;;5064673;28;20480;-80
2021/06/12 11:35:09;;;;;;;4.40;4.10;;;;;;;;;;5062626;28;20449;-80
2021/06/12 11:37:36;;;;;;;4.30;4.03;;;;;;;;;;5064208;28;20437;-80
2021/06/12 11:40:05;;;;;;;4.80;4.37;;;;;;;;;;5063230;28;20465;-80
2021/06/12 11:42:43;;;;;;;4.57;4.17;;;;;;;;;;5064483;28;20602;-80
2021/06/12 11:45:14;;;;;;;5.20;4.80;;;;;;;;;;5065226;28;20457;-80
2021/06/12 11:47:44;;;;;;;4.53;3.90;;;;;;;;;;5064517;28;20857;-81
2021/06/12 11:50:11;;;;;;;4.27;3.90;;;;;;;;;;5064155;28;20466;-80
2021/06/12 11:52:38;;;;;;;4.00;3.73;;;;;;;;;;5064010;28;20476;-80
2021/06/12 11:55:13;;;;;;;5.30;4.10;;;27.30;58.90;;;;;;5064953;28;20433;-80
2021/06/12 11:57:42;;;;;;;3.43;3.23;;;27.10;59.00;;;;;;5046927;28;20452;-80
2021/06/12 12:00:28;;;;;;;3.83;3.60;;;;;;;;;;5047789;28;20515;-80
2021/06/12 12:02:59;;;;;;;3.83;3.60;;;27.40;59.00;;;;;;5066696;28;20431;-80
2021/06/12 12:05:32;;;;;;;5.10;3.97;;;27.50;58.20;;;;;;5065422;28;20468;-80
2021/06/12 12:07:58;;;;;;;6.70;4.00;;;27.30;57.90;;;;;;5065026;28;20437;-81
2021/06/12 12:10:26;;;;;;;3.40;3.20;;;26.80;58.20;;;;;;5066818;28;20491;-80
2021/06/12 12:12:57;;;;;;;4.37;3.90;;;26.80;59.00;;;;;;5065904;28;20452;-80
2021/06/12 12:15:43;;;;;;;4.23;3.83;;;26.80;59.10;;;;;;5064544;28;20545;-79
2021/06/12 12:18:11;;;;;;;4.43;3.90;;;27.30;60.00;;;;;;5064084;28;20445;-80
2021/06/12 12:20:40;;;;;;;6.67;4.10;;;;;;;;;;5066764;28;20846;-81
2021/06/12 12:23:24;;;;;;;4.50;4.00;;;27.10;59.80;;;;;;5069273;28;20442;-81
2021/06/12 12:26:03;;;;;;;4.57;4.23;;;27.60;60.50;;;;;;5076844;28;20449;-81
2021/06/12 12:28:31;;;;;;;4.30;4.00;;;28.30;60.00;;;;;;5070146;28;20462;-79
2021/06/12 12:31:07;;;;;;;4.20;3.90;;;27.90;59.90;;;;;;5065745;28;20476;-79
2021/06/12 12:33:44;;;;;;;3.90;3.50;;;28.30;59.70;;;;;;5065655;28;20445;-80
2021/06/12 12:36:13;;;;;;;3.97;3.70;;;27.90;59.30;;;;;;5064409;28;20429;-79
2021/06/12 12:38:41;;;;;;;3.70;3.50;;;27.70;59.00;;;;;;5064063;28;20465;-79
2021/06/12 12:41:10;;;;;;;3.80;3.60;;;27.60;59.40;;;;;;5061912;28;20453;-79
2021/06/12 12:43:38;;;;;;;3.77;3.47;;;27.50;59.10;;;;;;5060470;28;20469;-78
2021/06/12 12:46:08;;;;;;;4.20;3.80;;;27.10;59.20;;;;;;5061066;28;20946;-79
2021/06/12 12:48:34;;;;;;;3.87;3.57;;;26.90;59.20;;;;;;5058275;28;20499;-79
2021/06/12 12:51:01;;;;;;;5.97;3.50;;;26.80;59.90;;;;;;5059457;28;20978;-79
2021/06/12 12:53:37;;;;;;;4.57;4.17;;;;;;;;;;5060756;28;20440;-78
2021/06/12 12:56:05;;;;;;;4.43;3.83;;;26.80;59.50;;;;;;5059944;28;20823;-79
2021/06/12 12:58:32;;;;;;;4.03;3.70;;;;;;;;;;5058186;28;20457;-78
2021/06/12 13:01:16;;;;;;;3.73;3.50;;;26.60;59.90;;;;;;5057550;28;20468;-79
2021/06/12 13:03:46;;;;;;;3.90;3.60;;;26.80;60.10;;;;;;5040678;28;20801;-79
2021/06/12 13:06:32;;;;;;;5.60;3.70;;;26.70;60.50;;;;;;5063491;28;20456;-79
2021/06/12 13:09:10;;;;;;;4.10;3.80;;;26.60;60.60;;;;;;5066941;28;20472;-79
2021/06/12 13:11:44;;;;;;;3.70;3.50;;;26.80;60.80;;;;;;5060459;28;20494;-78
2021/06/12 13:14:22;;;;;;;4.03;3.70;;;27.00;60.20;;;;;;5061132;28;20463;-78
2021/06/12 13:16:57;;;;;;;3.93;3.50;;;;;;;;;;5065273;28;20501;-78
2021/06/12 13:19:33;;;;;;;4.90;3.87;;;27.10;60.10;;;;;;5072672;28;20432;-79
2021/06/12 13:22:01;;;;;;;4.17;3.77;;;27.00;60.50;;;;;;5066134;28;20479;-79
2021/06/12 13:24:27;;;;;;;4.37;3.97;;;26.90;60.50;;;;;;5060129;28;20437;-79
2021/06/12 13:26:54;;;;;;;3.80;3.60;;;27.30;60.60;;;;;;5059923;28;20460;-77
2021/06/12 13:29:22;;;;;;;4.00;3.70;;;26.60;60.10;;;;;;5063126;28;20454;-78
2021/06/12 13:31:48;;;;;;;4.23;3.83;;;26.80;61.00;;;;;;5068851;28;20438;-77
2021/06/12 13:34:30;;;;;;;4.20;3.60;;;26.90;60.40;;;;;;5057921;28;20433;-78
2021/06/12 13:36:59;;;;;;;3.87;3.50;;;27.00;59.90;;;;;;5060035;28;20440;-78
2021/06/12 13:39:33;;;;;;;3.80;3.50;;;27.00;60.50;;;;;;5059540;28;20457;-78
2021/06/12 13:42:11;;;;;;;5.13;3.40;;;26.70;60.50;;;;;;5062284;28;20437;-78
2021/06/12 13:44:37;;;;;;;3.87;3.57;;;26.80;60.30;;;;;;5059199;28;20494;-77
2021/06/12 13:47:05;;;;;;;3.03;2.83;;;27.00;60.70;;;;;;5058058;28;20484;-77
2021/06/12 13:49:33;;;;;;;3.20;3.00;;;26.70;60.00;;;;;;5055224;28;20476;-78
2021/06/12 13:51:59;;;;;;;2.90;2.70;;;27.20;60.20;;;;;;5056356;28;20464;-78
2021/06/12 13:54:26;;;;;;;2.70;2.50;;;;;;;;;;5056061;28;20444;-78
2021/06/12 13:56:52;;;;;;;4.43;3.60;;;27.40;58.70;;;;;;5056091;28;20450;-77
2021/06/12 13:59:21;;;;;;;3.10;2.90;;;27.20;58.40;;;;;;5056232;28;20480;-77
2021/06/12 14:01:50;;;;;;;4.13;2.37;;;27.30;58.00;;;;;;5057944;28;20517;-78
2021/06/12 14:04:16;;;;;;;5.07;2.73;;;27.00;57.40;;;;;;5058908;28;20503;-78
2021/06/12 14:06:44;;;;;;;3.50;2.47;;;26.90;57.20;;;;;;5058096;28;20443;-78
2021/06/12 14:09:11;;;;;;;2.20;2.00;;;27.20;56.90;;;;;;5059553;28;20568;-78
2021/06/12 14:11:37;;;;;;;9.20;2.80;;;27.00;57.10;;;;;;5065012;28;20472;-78
2021/06/12 14:14:05;;;;;;;2.10;2.00;;;26.60;56.70;;;;;;5067283;28;20463;-77
2021/06/12 14:16:32;;;;;;;3.30;1.93;;;26.70;57.10;;;;;;5067338;28;20448;-78
2021/06/12 14:18:59;;;;;;;2.63;2.40;;;;;;;;;;5067326;28;20580;-78